Terminal Aerodrome Forecast
Issued by NWS

Home | Current Version | Previous Version | Text Only | Print | Product List | Glossary On
Versions: 1 2 3 4 5 6 7 8 9 10 11 12 13 14 15 16 17 18 19
000
FTUS44 KTSA 281100
TAFRVS
TAF
KRVS 281130Z 2812/0112 04004KT 3SM -SN BR OVC030
     FM281500 12007KT 3SM -SN BR OVC010
      TEMPO 2816/2820 1/2SM SN FG OVC007
     FM282300 12004KT 3SM -SNPL BR OVC007
      TEMPO 0108/0112 1SM -FZDZ BR OVC004=

USA.gov is the U.S. government's official web portal to all federal, state and local government web resources and services.